sensor_id;sensor_type;location;lat;lon;timestamp;P1;P2;P0
67892;PMS7003;54688;52.376;16.744;2023-06-22T00:02:59;26;23;
67892;PMS7003;54688;52.376;16.744;2023-06-22T00:06:01;33;29;
67892;PMS7003;54688;52.376;16.744;2023-06-22T00:09:04;28;28;
67892;PMS7003;54688;52.376;16.744;2023-06-22T00:12:07;31;25;
67892;PMS7003;54688;52.376;16.744;2023-06-22T00:15:09;31;27;
67892;PMS7003;54688;52.376;16.744;2023-06-22T00:18:11;30;25;
67892;PMS7003;54688;52.376;16.744;2023-06-22T00:21:12;31;29;
67892;PMS7003;54688;52.376;16.744;2023-06-22T00:24:14;33;28;
67892;PMS7003;54688;52.376;16.744;2023-06-22T00:27:16;31;27;
67892;PMS7003;54688;52.376;16.744;2023-06-22T00:30:18;29;25;
67892;PMS7003;54688;52.376;16.744;2023-06-22T00:33:21;30;27;
67892;PMS7003;54688;52.376;16.744;2023-06-22T00:36:23;29;23;
67892;PMS7003;54688;52.376;16.744;2023-06-22T00:39:25;29;26;
67892;PMS7003;54688;52.376;16.744;2023-06-22T00:42:28;24;24;
67892;PMS7003;54688;52.376;16.744;2023-06-22T00:45:30;27;24;
67892;PMS7003;54688;52.376;16.744;2023-06-22T00:48:32;28;24;
67892;PMS7003;54688;52.376;16.744;2023-06-22T00:51:34;30;27;
67892;PMS7003;54688;52.376;16.744;2023-06-22T00:54:37;28;24;
67892;PMS7003;54688;52.376;16.744;2023-06-22T00:57:39;31;25;
67892;PMS7003;54688;52.376;16.744;2023-06-22T01:00:42;29;24;
67892;PMS7003;54688;52.376;16.744;2023-06-22T01:03:44;26;23;
67892;PMS7003;54688;52.376;16.744;2023-06-22T01:06:54;38;30;
67892;PMS7003;54688;52.376;16.744;2023-06-22T01:09:59;30;26;
67892;PMS7003;54688;52.376;16.744;2023-06-22T01:13:10;26;23;
67892;PMS7003;54688;52.376;16.744;2023-06-22T01:16:16;31;27;
67892;PMS7003;54688;52.376;16.744;2023-06-22T01:19:31;29;25;
67892;PMS7003;54688;52.376;16.744;2023-06-22T01:22:46;28;26;
67892;PMS7003;54688;52.376;16.744;2023-06-22T01:25:59;36;30;
67892;PMS7003;54688;52.376;16.744;2023-06-22T01:29:05;22;19;
67892;PMS7003;54688;52.376;16.744;2023-06-22T01:32:08;25;22;
67892;PMS7003;54688;52.376;16.744;2023-06-22T01:35:11;34;31;
67892;PMS7003;54688;52.376;16.744;2023-06-22T01:38:14;28;26;
67892;PMS7003;54688;52.376;16.744;2023-06-22T01:41:17;27;24;
67892;PMS7003;54688;52.376;16.744;2023-06-22T01:44:19;30;29;
67892;PMS7003;54688;52.376;16.744;2023-06-22T01:47:22;29;27;
67892;PMS7003;54688;52.376;16.744;2023-06-22T01:50:23;25;21;
67892;PMS7003;54688;52.376;16.744;2023-06-22T01:53:25;36;30;
67892;PMS7003;54688;52.376;16.744;2023-06-22T01:56:28;28;24;
67892;PMS7003;54688;52.376;16.744;2023-06-22T01:59:34;31;28;
67892;PMS7003;54688;52.376;16.744;2023-06-22T02:02:42;32;29;
67892;PMS7003;54688;52.376;16.744;2023-06-22T02:05:48;27;21;
67892;PMS7003;54688;52.376;16.744;2023-06-22T02:08:55;24;23;
67892;PMS7003;54688;52.376;16.744;2023-06-22T02:12:00;27;25;
67892;PMS7003;54688;52.376;16.744;2023-06-22T02:15:04;31;27;
67892;PMS7003;54688;52.376;16.744;2023-06-22T02:18:07;26;23;
67892;PMS7003;54688;52.376;16.744;2023-06-22T02:21:09;26;25;
67892;PMS7003;54688;52.376;16.744;2023-06-22T02:24:11;32;27;
67892;PMS7003;54688;52.376;16.744;2023-06-22T02:27:13;25;23;
67892;PMS7003;54688;52.376;16.744;2023-06-22T02:30:15;32;26;
67892;PMS7003;54688;52.376;16.744;2023-06-22T02:33:18;24;21;
67892;PMS7003;54688;52.376;16.744;2023-06-22T02:36:19;30;24;
67892;PMS7003;54688;52.376;16.744;2023-06-22T02:39:23;29;23;
67892;PMS7003;54688;52.376;16.744;2023-06-22T02:42:25;35;29;
67892;PMS7003;54688;52.376;16.744;2023-06-22T02:45:28;29;25;
67892;PMS7003;54688;52.376;16.744;2023-06-22T02:48:30;34;28;
67892;PMS7003;54688;52.376;16.744;2023-06-22T02:51:33;23;21;
67892;PMS7003;54688;52.376;16.744;2023-06-22T02:54:36;27;26;
67892;PMS7003;54688;52.376;16.744;2023-06-22T02:57:37;27;27;
67892;PMS7003;54688;52.376;16.744;2023-06-22T03:00:39;32;25;
67892;PMS7003;54688;52.376;16.744;2023-06-22T03:03:41;36;31;
67892;PMS7003;54688;52.376;16.744;2023-06-22T03:06:43;25;23;
67892;PMS7003;54688;52.376;16.744;2023-06-22T03:09:45;34;30;
67892;PMS7003;54688;52.376;16.744;2023-06-22T03:12:48;27;23;
67892;PMS7003;54688;52.376;16.744;2023-06-22T03:15:50;29;26;
67892;PMS7003;54688;52.376;16.744;2023-06-22T03:18:52;33;30;
67892;PMS7003;54688;52.376;16.744;2023-06-22T03:21:53;32;26;
67892;PMS7003;54688;52.376;16.744;2023-06-22T03:24:55;35;32;
67892;PMS7003;54688;52.376;16.744;2023-06-22T03:27:57;27;24;
67892;PMS7003;54688;52.376;16.744;2023-06-22T03:30:59;23;23;
67892;PMS7003;54688;52.376;16.744;2023-06-22T03:34:00;26;24;
67892;PMS7003;54688;52.376;16.744;2023-06-22T03:37:03;33;30;
67892;PMS7003;54688;52.376;16.744;2023-06-22T03:40:06;32;24;
67892;PMS7003;54688;52.376;16.744;2023-06-22T03:43:08;26;26;
67892;PMS7003;54688;52.376;16.744;2023-06-22T03:46:10;26;23;
67892;PMS7003;54688;52.376;16.744;2023-06-22T03:49:12;37;27;
67892;PMS7003;54688;52.376;16.744;2023-06-22T03:52:14;23;22;
67892;PMS7003;54688;52.376;16.744;2023-06-22T03:55:16;36;30;
67892;PMS7003;54688;52.376;16.744;2023-06-22T03:58:19;30;22;
67892;PMS7003;54688;52.376;16.744;2023-06-22T04:01:21;23;19;
67892;PMS7003;54688;52.376;16.744;2023-06-22T04:04:23;23;21;
67892;PMS7003;54688;52.376;16.744;2023-06-22T04:07:25;27;22;
67892;PMS7003;54688;52.376;16.744;2023-06-22T04:10:27;27;24;
67892;PMS7003;54688;52.376;16.744;2023-06-22T04:13:29;29;22;
67892;PMS7003;54688;52.376;16.744;2023-06-22T04:16:31;21;20;
67892;PMS7003;54688;52.376;16.744;2023-06-22T04:19:33;24;23;
67892;PMS7003;54688;52.376;16.744;2023-06-22T04:22:35;28;25;
67892;PMS7003;54688;52.376;16.744;2023-06-22T04:25:38;27;24;
67892;PMS7003;54688;52.376;16.744;2023-06-22T04:28:40;23;22;
67892;PMS7003;54688;52.376;16.744;2023-06-22T04:31:42;24;20;
67892;PMS7003;54688;52.376;16.744;2023-06-22T04:34:44;29;28;
67892;PMS7003;54688;52.376;16.744;2023-06-22T04:37:46;23;22;
67892;PMS7003;54688;52.376;16.744;2023-06-22T04:40:48;25;23;
67892;PMS7003;54688;52.376;16.744;2023-06-22T04:43:49;24;20;
67892;PMS7003;54688;52.376;16.744;2023-06-22T04:46:53;21;19;
67892;PMS7003;54688;52.376;16.744;2023-06-22T04:49:55;22;19;
67892;PMS7003;54688;52.376;16.744;2023-06-22T04:52:56;23;20;
67892;PMS7003;54688;52.376;16.744;2023-06-22T04:55:59;23;17;
67892;PMS7003;54688;52.376;16.744;2023-06-22T04:59:01;19;19;
67892;PMS7003;54688;52.376;16.744;2023-06-22T05:02:04;27;20;
67892;PMS7003;54688;52.376;16.744;2023-06-22T05:05:07;22;19;
67892;PMS7003;54688;52.376;16.744;2023-06-22T05:08:09;19;17;
67892;PMS7003;54688;52.376;16.744;2023-06-22T05:11:11;18;16;
67892;PMS7003;54688;52.376;16.744;2023-06-22T05:14:13;17;16;
67892;PMS7003;54688;52.376;16.744;2023-06-22T05:17:15;13;12;
67892;PMS7003;54688;52.376;16.744;2023-06-22T05:20:17;12;12;
67892;PMS7003;54688;52.376;16.744;2023-06-22T05:23:19;15;11;
67892;PMS7003;54688;52.376;16.744;2023-06-22T05:26:21;12;10;
67892;PMS7003;54688;52.376;16.744;2023-06-22T05:29:24;11;11;
67892;PMS7003;54688;52.376;16.744;2023-06-22T05:32:26;13;12;
67892;PMS7003;54688;52.376;16.744;2023-06-22T05:35:27;14;13;
67892;PMS7003;54688;52.376;16.744;2023-06-22T05:38:29;9;8;
67892;PMS7003;54688;52.376;16.744;2023-06-22T05:41:31;11;9;
67892;PMS7003;54688;52.376;16.744;2023-06-22T05:44:33;10;9;
67892;PMS7003;54688;52.376;16.744;2023-06-22T05:47:35;11;9;
67892;PMS7003;54688;52.376;16.744;2023-06-22T05:50:38;11;9;
67892;PMS7003;54688;52.376;16.744;2023-06-22T05:53:40;7;7;
67892;PMS7003;54688;52.376;16.744;2023-06-22T05:56:42;13;12;
67892;PMS7003;54688;52.376;16.744;2023-06-22T05:59:44;9;9;
67892;PMS7003;54688;52.376;16.744;2023-06-22T06:02:46;11;9;
67892;PMS7003;54688;52.376;16.744;2023-06-22T06:05:48;9;9;
67892;PMS7003;54688;52.376;16.744;2023-06-22T06:08:50;13;13;
67892;PMS7003;54688;52.376;16.744;2023-06-22T06:11:53;12;9;
67892;PMS7003;54688;52.376;16.744;2023-06-22T06:14:55;11;11;
67892;PMS7003;54688;52.376;16.744;2023-06-22T06:17:57;11;9;
67892;PMS7003;54688;52.376;16.744;2023-06-22T06:20:59;11;10;
67892;PMS7003;54688;52.376;16.744;2023-06-22T06:24:01;10;9;
67892;PMS7003;54688;52.376;16.744;2023-06-22T06:27:03;10;9;
67892;PMS7003;54688;52.376;16.744;2023-06-22T06:30:06;10;8;
67892;PMS7003;54688;52.376;16.744;2023-06-22T06:33:09;11;9;
67892;PMS7003;54688;52.376;16.744;2023-06-22T06:36:10;5;5;
67892;PMS7003;54688;52.376;16.744;2023-06-22T06:39:13;11;10;
67892;PMS7003;54688;52.376;16.744;2023-06-22T06:42:15;7;7;
67892;PMS7003;54688;52.376;16.744;2023-06-22T06:45:19;8;6;
67892;PMS7003;54688;52.376;16.744;2023-06-22T06:48:21;8;6;
67892;PMS7003;54688;52.376;16.744;2023-06-22T06:51:23;6;5;
67892;PMS7003;54688;52.376;16.744;2023-06-22T06:54:26;6;6;
67892;PMS7003;54688;52.376;16.744;2023-06-22T06:57:27;6;5;
67892;PMS7003;54688;52.376;16.744;2023-06-22T07:00:29;10;7;
67892;PMS7003;54688;52.376;16.744;2023-06-22T07:03:31;7;5;
67892;PMS7003;54688;52.376;16.744;2023-06-22T07:06:32;7;5;
67892;PMS7003;54688;52.376;16.744;2023-06-22T07:09:34;3;3;
67892;PMS7003;54688;52.376;16.744;2023-06-22T07:12:36;5;5;
67892;PMS7003;54688;52.376;16.744;2023-06-22T07:15:39;6;5;
67892;PMS7003;54688;52.376;16.744;2023-06-22T07:18:41;4;4;
67892;PMS7003;54688;52.376;16.744;2023-06-22T07:21:43;5;5;
67892;PMS7003;54688;52.376;16.744;2023-06-22T07:24:45;4;4;
67892;PMS7003;54688;52.376;16.744;2023-06-22T07:27:58;3;2;
67892;PMS7003;54688;52.376;16.744;2023-06-22T07:31:00;5;5;
67892;PMS7003;54688;52.376;16.744;2023-06-22T07:34:03;4;2;
67892;PMS7003;54688;52.376;16.744;2023-06-22T07:37:05;3;3;
67892;PMS7003;54688;52.376;16.744;2023-06-22T07:40:08;6;4;
67892;PMS7003;54688;52.376;16.744;2023-06-22T07:43:10;5;4;
67892;PMS7003;54688;52.376;16.744;2023-06-22T07:46:12;3;3;
67892;PMS7003;54688;52.376;16.744;2023-06-22T07:55:13;2;1;
67892;PMS7003;54688;52.376;16.744;2023-06-22T07:58:15;5;2;
67892;PMS7003;54688;52.376;16.744;2023-06-22T08:01:17;4;3;
67892;PMS7003;54688;52.376;16.744;2023-06-22T08:04:20;5;4;
67892;PMS7003;54688;52.376;16.744;2023-06-22T08:07:21;4;4;
67892;PMS7003;54688;52.376;16.744;2023-06-22T08:10:23;4;3;
67892;PMS7003;54688;52.376;16.744;2023-06-22T08:13:25;5;3;
67892;PMS7003;54688;52.376;16.744;2023-06-22T08:16:28;4;2;
67892;PMS7003;54688;52.376;16.744;2023-06-22T08:19:30;4;4;
67892;PMS7003;54688;52.376;16.744;2023-06-22T08:22:32;3;3;
67892;PMS7003;54688;52.376;16.744;2023-06-22T08:25:34;7;4;
67892;PMS7003;54688;52.376;16.744;2023-06-22T08:28:37;7;3;
67892;PMS7003;54688;52.376;16.744;2023-06-22T08:31:39;3;3;
67892;PMS7003;54688;52.376;16.744;2023-06-22T08:34:41;6;5;
67892;PMS7003;54688;52.376;16.744;2023-06-22T08:37:43;5;5;
67892;PMS7003;54688;52.376;16.744;2023-06-22T08:40:46;7;4;
67892;PMS7003;54688;52.376;16.744;2023-06-22T08:43:48;2;2;
67892;PMS7003;54688;52.376;16.744;2023-06-22T08:46:49;5;3;
67892;PMS7003;54688;52.376;16.744;2023-06-22T08:49:51;2;2;
67892;PMS7003;54688;52.376;16.744;2023-06-22T08:52:52;2;2;
67892;PMS7003;54688;52.376;16.744;2023-06-22T08:55:55;1;1;
67892;PMS7003;54688;52.376;16.744;2023-06-22T08:58:56;5;3;
67892;PMS7003;54688;52.376;16.744;2023-06-22T09:01:58;3;2;
67892;PMS7003;54688;52.376;16.744;2023-06-22T09:05:03;3;3;
67892;PMS7003;54688;52.376;16.744;2023-06-22T09:08:05;2;2;
67892;PMS7003;54688;52.376;16.744;2023-06-22T09:11:08;3;3;
67892;PMS7003;54688;52.376;16.744;2023-06-22T09:14:11;3;3;
67892;PMS7003;54688;52.376;16.744;2023-06-22T09:17:13;5;3;
67892;PMS7003;54688;52.376;16.744;2023-06-22T09:20:15;2;2;
67892;PMS7003;54688;52.376;16.744;2023-06-22T09:23:17;4;4;
67892;PMS7003;54688;52.376;16.744;2023-06-22T09:26:19;6;4;
67892;PMS7003;54688;52.376;16.744;2023-06-22T09:29:21;3;3;
67892;PMS7003;54688;52.376;16.744;2023-06-22T09:32:23;5;5;
67892;PMS7003;54688;52.376;16.744;2023-06-22T09:35:26;6;2;
67892;PMS7003;54688;52.376;16.744;2023-06-22T09:38:28;2;2;
67892;PMS7003;54688;52.376;16.744;2023-06-22T09:41:30;6;5;
67892;PMS7003;54688;52.376;16.744;2023-06-22T09:44:32;4;4;
67892;PMS7003;54688;52.376;16.744;2023-06-22T09:47:35;3;3;
67892;PMS7003;54688;52.376;16.744;2023-06-22T09:50:36;6;3;
67892;PMS7003;54688;52.376;16.744;2023-06-22T09:53:38;3;3;
67892;PMS7003;54688;52.376;16.744;2023-06-22T09:56:41;3;2;
67892;PMS7003;54688;52.376;16.744;2023-06-22T09:59:43;4;3;
67892;PMS7003;54688;52.376;16.744;2023-06-22T10:02:46;3;3;
67892;PMS7003;54688;52.376;16.744;2023-06-22T10:05:48;2;2;
67892;PMS7003;54688;52.376;16.744;2023-06-22T10:08:51;3;3;
67892;PMS7003;54688;52.376;16.744;2023-06-22T10:12:10;3;2;
67892;PMS7003;54688;52.376;16.744;2023-06-22T10:15:12;3;2;
67892;PMS7003;54688;52.376;16.744;2023-06-22T10:18:14;2;1;
67892;PMS7003;54688;52.376;16.744;2023-06-22T10:24:16;1;1;
67892;PMS7003;54688;52.376;16.744;2023-06-22T10:27:19;1;1;
67892;PMS7003;54688;52.376;16.744;2023-06-22T10:30:21;4;2;
67892;PMS7003;54688;52.376;16.744;2023-06-22T10:33:23;2;2;
67892;PMS7003;54688;52.376;16.744;2023-06-22T10:39:24;6;2;
67892;PMS7003;54688;52.376;16.744;2023-06-22T10:42:25;3;1;
67892;PMS7003;54688;52.376;16.744;2023-06-22T10:48:27;4;2;
67892;PMS7003;54688;52.376;16.744;2023-06-22T10:51:30;1;1;
67892;PMS7003;54688;52.376;16.744;2023-06-22T10:54:32;3;3;
67892;PMS7003;54688;52.376;16.744;2023-06-22T10:57:34;3;3;
67892;PMS7003;54688;52.376;16.744;2023-06-22T11:00:37;3;3;
67892;PMS7003;54688;52.376;16.744;2023-06-22T11:03:39;4;4;
67892;PMS7003;54688;52.376;16.744;2023-06-22T11:06:41;4;4;
67892;PMS7003;54688;52.376;16.744;2023-06-22T11:09:44;3;3;
67892;PMS7003;54688;52.376;16.744;2023-06-22T11:12:46;3;2;
67892;PMS7003;54688;52.376;16.744;2023-06-22T11:15:49;7;3;
67892;PMS7003;54688;52.376;16.744;2023-06-22T11:18:51;6;4;
67892;PMS7003;54688;52.376;16.744;2023-06-22T11:21:53;5;4;
67892;PMS7003;54688;52.376;16.744;2023-06-22T11:24:55;3;3;
67892;PMS7003;54688;52.376;16.744;2023-06-22T11:27:56;5;5;
67892;PMS7003;54688;52.376;16.744;2023-06-22T11:30:59;5;5;
67892;PMS7003;54688;52.376;16.744;2023-06-22T11:34:00;5;5;
67892;PMS7003;54688;52.376;16.744;2023-06-22T11:37:03;5;5;
67892;PMS7003;54688;52.376;16.744;2023-06-22T11:40:06;4;4;
67892;PMS7003;54688;52.376;16.744;2023-06-22T11:43:08;8;6;
67892;PMS7003;54688;52.376;16.744;2023-06-22T11:46:10;3;3;
67892;PMS7003;54688;52.376;16.744;2023-06-22T11:49:13;7;5;
67892;PMS7003;54688;52.376;16.744;2023-06-22T11:52:15;7;5;
67892;PMS7003;54688;52.376;16.744;2023-06-22T11:55:17;6;6;
67892;PMS7003;54688;52.376;16.744;2023-06-22T11:58:19;6;6;
67892;PMS7003;54688;52.376;16.744;2023-06-22T12:01:22;6;6;
67892;PMS7003;54688;52.376;16.744;2023-06-22T12:04:24;5;4;
67892;PMS7003;54688;52.376;16.744;2023-06-22T12:07:26;5;5;
67892;PMS7003;54688;52.376;16.744;2023-06-22T12:10:28;7;5;
67892;PMS7003;54688;52.376;16.744;2023-06-22T12:13:30;5;5;
67892;PMS7003;54688;52.376;16.744;2023-06-22T12:16:32;7;5;
67892;PMS7003;54688;52.376;16.744;2023-06-22T12:19:35;5;5;
67892;PMS7003;54688;52.376;16.744;2023-06-22T12:22:37;7;5;
67892;PMS7003;54688;52.376;16.744;2023-06-22T12:25:39;5;5;
67892;PMS7003;54688;52.376;16.744;2023-06-22T12:28:41;5;5;
67892;PMS7003;54688;52.376;16.744;2023-06-22T12:31:44;3;3;
67892;PMS7003;54688;52.376;16.744;2023-06-22T12:34:45;5;4;
67892;PMS7003;54688;52.376;16.744;2023-06-22T12:37:48;6;4;
67892;PMS7003;54688;52.376;16.744;2023-06-22T12:40:50;4;4;
67892;PMS7003;54688;52.376;16.744;2023-06-22T12:43:52;6;4;
67892;PMS7003;54688;52.376;16.744;2023-06-22T12:46:55;5;5;
67892;PMS7003;54688;52.376;16.744;2023-06-22T12:49:57;9;6;
67892;PMS7003;54688;52.376;16.744;2023-06-22T12:53:01;3;3;
67892;PMS7003;54688;52.376;16.744;2023-06-22T12:56:03;4;4;
67892;PMS7003;54688;52.376;16.744;2023-06-22T12:59:05;5;4;
67892;PMS7003;54688;52.376;16.744;2023-06-22T13:02:08;7;4;
67892;PMS7003;54688;52.376;16.744;2023-06-22T13:05:10;6;6;
67892;PMS7003;54688;52.376;16.744;2023-06-22T13:08:12;4;4;
67892;PMS7003;54688;52.376;16.744;2023-06-22T13:11:14;5;5;
67892;PMS7003;54688;52.376;16.744;2023-06-22T13:14:16;6;5;
67892;PMS7003;54688;52.376;16.744;2023-06-22T13:17:18;6;5;
67892;PMS7003;54688;52.376;16.744;2023-06-22T13:20:21;4;4;
67892;PMS7003;54688;52.376;16.744;2023-06-22T13:23:23;4;4;
67892;PMS7003;54688;52.376;16.744;2023-06-22T13:26:25;6;6;
67892;PMS7003;54688;52.376;16.744;2023-06-22T13:29:28;5;5;
67892;PMS7003;54688;52.376;16.744;2023-06-22T13:32:30;4;4;
67892;PMS7003;54688;52.376;16.744;2023-06-22T13:35:32;4;4;
67892;PMS7003;54688;52.376;16.744;2023-06-22T13:38:35;4;4;
67892;PMS7003;54688;52.376;16.744;2023-06-22T13:41:37;4;3;
67892;PMS7003;54688;52.376;16.744;2023-06-22T13:44:39;5;3;
67892;PMS7003;54688;52.376;16.744;2023-06-22T13:47:42;7;5;
67892;PMS7003;54688;52.376;16.744;2023-06-22T13:50:44;5;5;
67892;PMS7003;54688;52.376;16.744;2023-06-22T13:53:46;3;3;
67892;PMS7003;54688;52.376;16.744;2023-06-22T13:56:48;4;4;
67892;PMS7003;54688;52.376;16.744;2023-06-22T13:59:50;4;4;
67892;PMS7003;54688;52.376;16.744;2023-06-22T14:02:53;5;4;
67892;PMS7003;54688;52.376;16.744;2023-06-22T14:05:55;5;5;
67892;PMS7003;54688;52.376;16.744;2023-06-22T14:08:57;5;3;
67892;PMS7003;54688;52.376;16.744;2023-06-22T14:12:03;6;6;
67892;PMS7003;54688;52.376;16.744;2023-06-22T14:15:06;3;3;
67892;PMS7003;54688;52.376;16.744;2023-06-22T14:18:08;6;3;
67892;PMS7003;54688;52.376;16.744;2023-06-22T14:21:11;4;4;
67892;PMS7003;54688;52.376;16.744;2023-06-22T14:24:13;5;5;
67892;PMS7003;54688;52.376;16.744;2023-06-22T14:27:15;5;5;
67892;PMS7003;54688;52.376;16.744;2023-06-22T14:30:17;4;4;
67892;PMS7003;54688;52.376;16.744;2023-06-22T14:33:20;5;5;
67892;PMS7003;54688;52.376;16.744;2023-06-22T14:36:24;5;4;
67892;PMS7003;54688;52.376;16.744;2023-06-22T14:39:26;5;5;
67892;PMS7003;54688;52.376;16.744;2023-06-22T14:42:30;5;4;
67892;PMS7003;54688;52.376;16.744;2023-06-22T14:45:32;7;5;
67892;PMS7003;54688;52.376;16.744;2023-06-22T14:48:35;4;4;
67892;PMS7003;54688;52.376;16.744;2023-06-22T14:51:37;4;3;
67892;PMS7003;54688;52.376;16.744;2023-06-22T14:54:39;3;3;
67892;PMS7003;54688;52.376;16.744;2023-06-22T14:57:41;6;5;
67892;PMS7003;54688;52.376;16.744;2023-06-22T15:00:44;3;3;
67892;PMS7003;54688;52.376;16.744;2023-06-22T15:03:46;4;4;
67892;PMS7003;54688;52.376;16.744;2023-06-22T15:06:48;5;3;
67892;PMS7003;54688;52.376;16.744;2023-06-22T15:09:50;7;5;
67892;PMS7003;54688;52.376;16.744;2023-06-22T15:12:53;7;6;
67892;PMS7003;54688;52.376;16.744;2023-06-22T15:15:55;4;4;
67892;PMS7003;54688;52.376;16.744;2023-06-22T15:18:57;3;3;
67892;PMS7003;54688;52.376;16.744;2023-06-22T15:25:08;5;5;
67892;PMS7003;54688;52.376;16.744;2023-06-22T15:28:11;4;4;
67892;PMS7003;54688;52.376;16.744;2023-06-22T15:31:13;4;4;
67892;PMS7003;54688;52.376;16.744;2023-06-22T15:34:15;4;4;
67892;PMS7003;54688;52.376;16.744;2023-06-22T15:37:17;4;4;
67892;PMS7003;54688;52.376;16.744;2023-06-22T15:40:19;7;4;
67892;PMS7003;54688;52.376;16.744;2023-06-22T15:43:21;4;4;
67892;PMS7003;54688;52.376;16.744;2023-06-22T15:46:24;4;4;
67892;PMS7003;54688;52.376;16.744;2023-06-22T15:49:26;5;5;
67892;PMS7003;54688;52.376;16.744;2023-06-22T15:52:28;6;5;
67892;PMS7003;54688;52.376;16.744;2023-06-22T15:55:31;3;3;
67892;PMS7003;54688;52.376;16.744;2023-06-22T15:58:33;4;4;
67892;PMS7003;54688;52.376;16.744;2023-06-22T16:01:36;7;4;
67892;PMS7003;54688;52.376;16.744;2023-06-22T16:04:38;7;4;
67892;PMS7003;54688;52.376;16.744;2023-06-22T16:07:39;3;3;
67892;PMS7003;54688;52.376;16.744;2023-06-22T16:10:41;4;4;
67892;PMS7003;54688;52.376;16.744;2023-06-22T16:13:44;5;3;
67892;PMS7003;54688;52.376;16.744;2023-06-22T16:16:46;3;3;
67892;PMS7003;54688;52.376;16.744;2023-06-22T16:19:48;3;3;
67892;PMS7003;54688;52.376;16.744;2023-06-22T16:22:51;4;3;
67892;PMS7003;54688;52.376;16.744;2023-06-22T16:25:53;6;5;
67892;PMS7003;54688;52.376;16.744;2023-06-22T16:28:55;4;4;
67892;PMS7003;54688;52.376;16.744;2023-06-22T16:31:57;6;4;
67892;PMS7003;54688;52.376;16.744;2023-06-22T16:34:59;4;4;
67892;PMS7003;54688;52.376;16.744;2023-06-22T16:38:02;6;5;
67892;PMS7003;54688;52.376;16.744;2023-06-22T16:41:05;4;4;
67892;PMS7003;54688;52.376;16.744;2023-06-22T16:44:07;4;4;
67892;PMS7003;54688;52.376;16.744;2023-06-22T16:47:10;4;4;
67892;PMS7003;54688;52.376;16.744;2023-06-22T16:50:12;5;5;
67892;PMS7003;54688;52.376;16.744;2023-06-22T16:53:14;4;4;
67892;PMS7003;54688;52.376;16.744;2023-06-22T16:56:16;6;6;
67892;PMS7003;54688;52.376;16.744;2023-06-22T16:59:18;4;4;
67892;PMS7003;54688;52.376;16.744;2023-06-22T17:02:22;4;3;
67892;PMS7003;54688;52.376;16.744;2023-06-22T17:05:26;4;4;
67892;PMS7003;54688;52.376;16.744;2023-06-22T17:08:29;5;4;
67892;PMS7003;54688;52.376;16.744;2023-06-22T17:11:31;6;6;
67892;PMS7003;54688;52.376;16.744;2023-06-22T17:14:33;5;5;
67892;PMS7003;54688;52.376;16.744;2023-06-22T17:17:36;6;6;
67892;PMS7003;54688;52.376;16.744;2023-06-22T17:20:38;3;3;
67892;PMS7003;54688;52.376;16.744;2023-06-22T17:23:40;7;6;
67892;PMS7003;54688;52.376;16.744;2023-06-22T17:26:45;6;5;
67892;PMS7003;54688;52.376;16.744;2023-06-22T17:29:46;4;4;
67892;PMS7003;54688;52.376;16.744;2023-06-22T17:32:49;6;5;
67892;PMS7003;54688;52.376;16.744;2023-06-22T17:35:51;4;4;
67892;PMS7003;54688;52.376;16.744;2023-06-22T17:38:58;6;5;
67892;PMS7003;54688;52.376;16.744;2023-06-22T17:42:00;4;4;
67892;PMS7003;54688;52.376;16.744;2023-06-22T17:45:03;6;5;
67892;PMS7003;54688;52.376;16.744;2023-06-22T17:48:07;6;5;
67892;PMS7003;54688;52.376;16.744;2023-06-22T17:51:13;5;5;
67892;PMS7003;54688;52.376;16.744;2023-06-22T17:54:15;7;6;
67892;PMS7003;54688;52.376;16.744;2023-06-22T17:57:17;6;5;
67892;PMS7003;54688;52.376;16.744;2023-06-22T18:00:20;6;4;
67892;PMS7003;54688;52.376;16.744;2023-06-22T18:03:25;4;4;
67892;PMS7003;54688;52.376;16.744;2023-06-22T18:06:27;5;4;
67892;PMS7003;54688;52.376;16.744;2023-06-22T18:09:30;3;3;
67892;PMS7003;54688;52.376;16.744;2023-06-22T18:12:33;4;4;
67892;PMS7003;54688;52.376;16.744;2023-06-22T18:15:37;6;4;
67892;PMS7003;54688;52.376;16.744;2023-06-22T18:18:39;5;5;
67892;PMS7003;54688;52.376;16.744;2023-06-22T18:21:41;10;6;
67892;PMS7003;54688;52.376;16.744;2023-06-22T18:24:48;5;4;
67892;PMS7003;54688;52.376;16.744;2023-06-22T18:27:51;5;3;
67892;PMS7003;54688;52.376;16.744;2023-06-22T18:30:53;7;4;
67892;PMS7003;54688;52.376;16.744;2023-06-22T18:33:57;7;4;
67892;PMS7003;54688;52.376;16.744;2023-06-22T18:37:00;4;4;
67892;PMS7003;54688;52.376;16.744;2023-06-22T18:40:06;4;4;
67892;PMS7003;54688;52.376;16.744;2023-06-22T18:43:08;6;5;
67892;PMS7003;54688;52.376;16.744;2023-06-22T18:46:42;6;6;
67892;PMS7003;54688;52.376;16.744;2023-06-22T18:49:46;5;5;
67892;PMS7003;54688;52.376;16.744;2023-06-22T18:53:01;6;6;
67892;PMS7003;54688;52.376;16.744;2023-06-22T18:56:11;4;4;
67892;PMS7003;54688;52.376;16.744;2023-06-22T18:59:14;5;3;
67892;PMS7003;54688;52.376;16.744;2023-06-22T19:02:33;7;5;
67892;PMS7003;54688;52.376;16.744;2023-06-22T19:05:37;7;7;
67892;PMS7003;54688;52.376;16.744;2023-06-22T19:10:20;6;6;
67892;PMS7003;54688;52.376;16.744;2023-06-22T19:13:27;4;4;
67892;PMS7003;54688;52.376;16.744;2023-06-22T19:16:29;6;6;
67892;PMS7003;54688;52.376;16.744;2023-06-22T19:19:34;6;5;
67892;PMS7003;54688;52.376;16.744;2023-06-22T19:22:49;6;6;
67892;PMS7003;54688;52.376;16.744;2023-06-22T19:25:55;5;5;
67892;PMS7003;54688;52.376;16.744;2023-06-22T19:28:57;6;6;
67892;PMS7003;54688;52.376;16.744;2023-06-22T19:32:01;8;6;
67892;PMS7003;54688;52.376;16.744;2023-06-22T19:35:03;6;6;
67892;PMS7003;54688;52.376;16.744;2023-06-22T19:38:07;9;8;
67892;PMS7003;54688;52.376;16.744;2023-06-22T19:41:09;7;6;
67892;PMS7003;54688;52.376;16.744;2023-06-22T19:44:11;8;7;
67892;PMS7003;54688;52.376;16.744;2023-06-22T19:47:14;9;8;
67892;PMS7003;54688;52.376;16.744;2023-06-22T19:50:16;10;7;
67892;PMS7003;54688;52.376;16.744;2023-06-22T19:53:19;9;9;
67892;PMS7003;54688;52.376;16.744;2023-06-22T19:56:21;8;8;
67892;PMS7003;54688;52.376;16.744;2023-06-22T19:59:24;9;8;
67892;PMS7003;54688;52.376;16.744;2023-06-22T20:02:28;9;8;
67892;PMS7003;54688;52.376;16.744;2023-06-22T20:05:30;7;5;
67892;PMS7003;54688;52.376;16.744;2023-06-22T20:08:42;9;9;
67892;PMS7003;54688;52.376;16.744;2023-06-22T20:11:44;5;5;
67892;PMS7003;54688;52.376;16.744;2023-06-22T20:14:46;8;5;
67892;PMS7003;54688;52.376;16.744;2023-06-22T20:17:55;7;7;
67892;PMS7003;54688;52.376;16.744;2023-06-22T20:20:57;9;7;
67892;PMS7003;54688;52.376;16.744;2023-06-22T20:24:02;9;5;
67892;PMS7003;54688;52.376;16.744;2023-06-22T20:27:10;8;6;
67892;PMS7003;54688;52.376;16.744;2023-06-22T20:30:14;10;7;
67892;PMS7003;54688;52.376;16.744;2023-06-22T20:33:17;10;8;
67892;PMS7003;54688;52.376;16.744;2023-06-22T20:36:19;7;7;
67892;PMS7003;54688;52.376;16.744;2023-06-22T20:39:22;10;7;
67892;PMS7003;54688;52.376;16.744;2023-06-22T20:42:24;10;8;